sensor_id;sensor_type;location;lat;lon;timestamp;P1;durP1;ratioP1;P2;durP2;ratioP2
69325;SDS011;56471;53.508;49.252;2023-04-24T00:00:25;4.57;;;3.08;;
69325;SDS011;56471;53.508;49.252;2023-04-24T00:02:50;5.15;;;3.30;;
69325;SDS011;56471;53.508;49.252;2023-04-24T00:05:16;5.70;;;3.30;;
69325;SDS011;56471;53.508;49.252;2023-04-24T00:07:43;7.97;;;3.20;;
69325;SDS011;56471;53.508;49.252;2023-04-24T00:10:12;6.00;;;3.30;;
69325;SDS011;56471;53.508;49.252;2023-04-24T00:12:37;6.50;;;3.33;;
69325;SDS011;56471;53.508;49.252;2023-04-24T00:15:04;5.22;;;3.38;;
69325;SDS011;56471;53.508;49.252;2023-04-24T00:17:30;5.68;;;3.20;;
69325;SDS011;56471;53.508;49.252;2023-04-24T00:19:56;5.95;;;3.40;;
69325;SDS011;56471;53.508;49.252;2023-04-24T00:22:26;3.63;;;3.10;;
69325;SDS011;56471;53.508;49.252;2023-04-24T00:24:52;8.20;;;3.28;;
69325;SDS011;56471;53.508;49.252;2023-04-24T00:27:18;5.07;;;3.20;;
69325;SDS011;56471;53.508;49.252;2023-04-24T00:29:44;4.50;;;2.90;;
69325;SDS011;56471;53.508;49.252;2023-04-24T00:32:10;4.32;;;2.95;;
69325;SDS011;56471;53.508;49.252;2023-04-24T00:34:36;4.22;;;3.05;;
69325;SDS011;56471;53.508;49.252;2023-04-24T00:37:01;4.80;;;3.10;;
69325;SDS011;56471;53.508;49.252;2023-04-24T00:39:27;3.65;;;2.70;;
69325;SDS011;56471;53.508;49.252;2023-04-24T00:41:53;4.43;;;2.90;;
69325;SDS011;56471;53.508;49.252;2023-04-24T00:44:19;5.57;;;3.15;;
69325;SDS011;56471;53.508;49.252;2023-04-24T00:46:45;5.80;;;2.80;;
69325;SDS011;56471;53.508;49.252;2023-04-24T00:49:12;7.03;;;3.05;;
69325;SDS011;56471;53.508;49.252;2023-04-24T00:51:39;6.03;;;2.85;;
69325;SDS011;56471;53.508;49.252;2023-04-24T00:54:05;7.00;;;3.05;;
69325;SDS011;56471;53.508;49.252;2023-04-24T00:56:34;4.28;;;2.92;;
69325;SDS011;56471;53.508;49.252;2023-04-24T00:58:59;5.53;;;3.10;;
69325;SDS011;56471;53.508;49.252;2023-04-24T01:01:25;7.20;;;2.80;;
69325;SDS011;56471;53.508;49.252;2023-04-24T01:03:51;4.57;;;2.83;;
69325;SDS011;56471;53.508;49.252;2023-04-24T01:06:20;4.72;;;2.70;;
69325;SDS011;56471;53.508;49.252;2023-04-24T01:08:47;3.08;;;2.67;;
69325;SDS011;56471;53.508;49.252;2023-04-24T01:11:13;6.13;;;2.75;;
69325;SDS011;56471;53.508;49.252;2023-04-24T01:13:39;3.95;;;2.90;;
69325;SDS011;56471;53.508;49.252;2023-04-24T01:16:06;4.45;;;2.83;;
69325;SDS011;56471;53.508;49.252;2023-04-24T01:18:31;5.05;;;2.70;;
69325;SDS011;56471;53.508;49.252;2023-04-24T01:20:57;3.85;;;2.53;;
69325;SDS011;56471;53.508;49.252;2023-04-24T01:23:25;4.53;;;3.03;;
69325;SDS011;56471;53.508;49.252;2023-04-24T01:25:51;3.67;;;2.63;;
69325;SDS011;56471;53.508;49.252;2023-04-24T01:28:17;3.90;;;2.58;;
69325;SDS011;56471;53.508;49.252;2023-04-24T01:30:44;4.88;;;2.72;;
69325;SDS011;56471;53.508;49.252;2023-04-24T01:33:10;7.15;;;2.90;;
69325;SDS011;56471;53.508;49.252;2023-04-24T01:35:36;4.30;;;2.63;;
69325;SDS011;56471;53.508;49.252;2023-04-24T01:38:02;3.67;;;2.80;;
69325;SDS011;56471;53.508;49.252;2023-04-24T01:40:28;4.22;;;2.63;;
69325;SDS011;56471;53.508;49.252;2023-04-24T01:42:54;4.53;;;2.95;;
69325;SDS011;56471;53.508;49.252;2023-04-24T01:45:27;6.85;;;3.33;;
69325;SDS011;56471;53.508;49.252;2023-04-24T01:47:53;7.30;;;3.20;;
69325;SDS011;56471;53.508;49.252;2023-04-24T01:50:18;3.85;;;2.53;;
69325;SDS011;56471;53.508;49.252;2023-04-24T01:52:44;4.45;;;2.70;;
69325;SDS011;56471;53.508;49.252;2023-04-24T01:55:10;3.38;;;2.60;;
69325;SDS011;56471;53.508;49.252;2023-04-24T01:57:36;3.67;;;2.53;;
69325;SDS011;56471;53.508;49.252;2023-04-24T02:00:02;3.53;;;2.63;;
69325;SDS011;56471;53.508;49.252;2023-04-24T02:02:29;3.83;;;2.70;;
69325;SDS011;56471;53.508;49.252;2023-04-24T02:04:56;2.97;;;2.67;;
69325;SDS011;56471;53.508;49.252;2023-04-24T02:07:22;5.20;;;2.70;;
69325;SDS011;56471;53.508;49.252;2023-04-24T02:09:48;4.85;;;2.80;;
69325;SDS011;56471;53.508;49.252;2023-04-24T02:12:14;3.17;;;2.70;;
69325;SDS011;56471;53.508;49.252;2023-04-24T02:14:40;5.20;;;2.90;;
69325;SDS011;56471;53.508;49.252;2023-04-24T02:17:07;5.82;;;2.80;;
69325;SDS011;56471;53.508;49.252;2023-04-24T02:19:33;5.30;;;2.70;;
69325;SDS011;56471;53.508;49.252;2023-04-24T02:21:58;4.00;;;2.65;;
69325;SDS011;56471;53.508;49.252;2023-04-24T02:24:24;5.80;;;2.80;;
69325;SDS011;56471;53.508;49.252;2023-04-24T02:26:50;5.20;;;3.00;;
69325;SDS011;56471;53.508;49.252;2023-04-24T02:29:15;3.08;;;2.70;;
69325;SDS011;56471;53.508;49.252;2023-04-24T02:31:41;7.57;;;2.88;;
69325;SDS011;56471;53.508;49.252;2023-04-24T02:34:07;5.82;;;2.70;;
69325;SDS011;56471;53.508;49.252;2023-04-24T02:36:32;4.55;;;2.72;;
69325;SDS011;56471;53.508;49.252;2023-04-24T02:38:58;4.38;;;2.92;;
69325;SDS011;56471;53.508;49.252;2023-04-24T02:41:23;4.93;;;2.95;;
69325;SDS011;56471;53.508;49.252;2023-04-24T02:43:49;2.80;;;2.50;;
69325;SDS011;56471;53.508;49.252;2023-04-24T02:46:15;5.03;;;2.72;;
69325;SDS011;56471;53.508;49.252;2023-04-24T02:48:40;2.80;;;2.50;;
69325;SDS011;56471;53.508;49.252;2023-04-24T02:51:06;4.03;;;2.80;;
69325;SDS011;56471;53.508;49.252;2023-04-24T02:53:32;4.10;;;2.58;;
69325;SDS011;56471;53.508;49.252;2023-04-24T02:55:57;5.03;;;2.78;;
69325;SDS011;56471;53.508;49.252;2023-04-24T02:58:23;7.68;;;3.03;;
69325;SDS011;56471;53.508;49.252;2023-04-24T03:00:53;3.85;;;2.70;;
69325;SDS011;56471;53.508;49.252;2023-04-24T03:03:20;5.65;;;2.90;;
69325;SDS011;56471;53.508;49.252;2023-04-24T03:05:46;3.42;;;2.90;;
69325;SDS011;56471;53.508;49.252;2023-04-24T03:08:12;5.50;;;3.03;;
69325;SDS011;56471;53.508;49.252;2023-04-24T03:10:37;4.10;;;2.70;;
69325;SDS011;56471;53.508;49.252;2023-04-24T03:13:03;4.68;;;2.70;;
69325;SDS011;56471;53.508;49.252;2023-04-24T03:15:29;4.40;;;2.78;;
69325;SDS011;56471;53.508;49.252;2023-04-24T03:17:54;5.63;;;3.03;;
69325;SDS011;56471;53.508;49.252;2023-04-24T03:20:20;4.68;;;2.58;;
69325;SDS011;56471;53.508;49.252;2023-04-24T03:22:46;2.95;;;2.58;;
69325;SDS011;56471;53.508;49.252;2023-04-24T03:25:12;2.97;;;2.53;;
69325;SDS011;56471;53.508;49.252;2023-04-24T03:27:37;4.05;;;2.40;;
69325;SDS011;56471;53.508;49.252;2023-04-24T03:30:04;3.42;;;2.60;;
69325;SDS011;56471;53.508;49.252;2023-04-24T03:32:31;4.18;;;2.80;;
69325;SDS011;56471;53.508;49.252;2023-04-24T03:34:57;4.18;;;2.75;;
69325;SDS011;56471;53.508;49.252;2023-04-24T03:37:23;3.30;;;2.53;;
69325;SDS011;56471;53.508;49.252;2023-04-24T03:39:48;3.78;;;2.65;;
69325;SDS011;56471;53.508;49.252;2023-04-24T03:42:14;3.00;;;2.50;;
69325;SDS011;56471;53.508;49.252;2023-04-24T03:44:40;7.07;;;2.50;;
69325;SDS011;56471;53.508;49.252;2023-04-24T03:47:06;3.17;;;2.42;;
69325;SDS011;56471;53.508;49.252;2023-04-24T03:49:31;3.13;;;2.30;;
69325;SDS011;56471;53.508;49.252;2023-04-24T03:51:57;3.35;;;2.65;;
69325;SDS011;56471;53.508;49.252;2023-04-24T03:54:22;4.20;;;2.90;;
69325;SDS011;56471;53.508;49.252;2023-04-24T03:56:48;4.40;;;2.75;;
69325;SDS011;56471;53.508;49.252;2023-04-24T03:59:13;6.03;;;2.85;;
69325;SDS011;56471;53.508;49.252;2023-04-24T04:01:39;6.50;;;2.78;;
69325;SDS011;56471;53.508;49.252;2023-04-24T04:04:08;4.65;;;2.88;;
69325;SDS011;56471;53.508;49.252;2023-04-24T04:06:33;4.93;;;2.78;;
69325;SDS011;56471;53.508;49.252;2023-04-24T04:09:01;4.25;;;2.80;;
69325;SDS011;56471;53.508;49.252;2023-04-24T04:11:27;4.93;;;2.83;;
69325;SDS011;56471;53.508;49.252;2023-04-24T04:13:52;5.82;;;2.92;;
69325;SDS011;56471;53.508;49.252;2023-04-24T04:16:18;3.20;;;2.58;;
69325;SDS011;56471;53.508;49.252;2023-04-24T04:18:44;3.47;;;2.58;;
69325;SDS011;56471;53.508;49.252;2023-04-24T04:21:10;5.05;;;2.60;;
69325;SDS011;56471;53.508;49.252;2023-04-24T04:23:36;3.47;;;2.60;;
69325;SDS011;56471;53.508;49.252;2023-04-24T04:26:05;4.68;;;2.70;;
69325;SDS011;56471;53.508;49.252;2023-04-24T04:28:30;5.13;;;2.58;;
69325;SDS011;56471;53.508;49.252;2023-04-24T04:30:57;8.20;;;2.67;;
69325;SDS011;56471;53.508;49.252;2023-04-24T04:33:23;6.32;;;2.80;;
69325;SDS011;56471;53.508;49.252;2023-04-24T04:35:51;4.20;;;2.53;;
69325;SDS011;56471;53.508;49.252;2023-04-24T04:38:21;4.22;;;2.80;;
69325;SDS011;56471;53.508;49.252;2023-04-24T04:40:47;5.97;;;3.00;;
69325;SDS011;56471;53.508;49.252;2023-04-24T04:43:13;5.35;;;2.63;;
69325;SDS011;56471;53.508;49.252;2023-04-24T04:45:40;3.45;;;2.83;;
69325;SDS011;56471;53.508;49.252;2023-04-24T04:48:06;5.35;;;2.80;;
69325;SDS011;56471;53.508;49.252;2023-04-24T04:50:34;6.65;;;2.90;;
69325;SDS011;56471;53.508;49.252;2023-04-24T04:53:00;4.78;;;2.60;;
69325;SDS011;56471;53.508;49.252;2023-04-24T04:55:25;3.40;;;2.75;;
69325;SDS011;56471;53.508;49.252;2023-04-24T04:57:51;3.88;;;2.70;;
69325;SDS011;56471;53.508;49.252;2023-04-24T05:00:17;5.25;;;2.33;;
69325;SDS011;56471;53.508;49.252;2023-04-24T05:02:43;4.28;;;2.53;;
69325;SDS011;56471;53.508;49.252;2023-04-24T05:05:09;5.78;;;2.78;;
69325;SDS011;56471;53.508;49.252;2023-04-24T05:07:35;3.75;;;2.67;;
69325;SDS011;56471;53.508;49.252;2023-04-24T05:10:00;4.68;;;2.80;;
69325;SDS011;56471;53.508;49.252;2023-04-24T05:12:26;5.78;;;2.63;;
69325;SDS011;56471;53.508;49.252;2023-04-24T05:14:52;4.45;;;2.90;;
69325;SDS011;56471;53.508;49.252;2023-04-24T05:17:18;8.25;;;2.60;;
69325;SDS011;56471;53.508;49.252;2023-04-24T05:19:43;4.88;;;2.45;;
69325;SDS011;56471;53.508;49.252;2023-04-24T05:22:09;5.60;;;2.80;;
69325;SDS011;56471;53.508;49.252;2023-04-24T05:24:36;4.45;;;3.00;;
69325;SDS011;56471;53.508;49.252;2023-04-24T05:27:02;6.97;;;2.70;;
69325;SDS011;56471;53.508;49.252;2023-04-24T05:29:29;3.67;;;2.75;;
69325;SDS011;56471;53.508;49.252;2023-04-24T05:31:57;4.60;;;2.85;;
69325;SDS011;56471;53.508;49.252;2023-04-24T05:34:23;4.55;;;2.55;;
69325;SDS011;56471;53.508;49.252;2023-04-24T05:36:48;4.43;;;2.72;;
69325;SDS011;56471;53.508;49.252;2023-04-24T05:39:15;4.90;;;2.70;;
69325;SDS011;56471;53.508;49.252;2023-04-24T05:41:41;5.47;;;3.08;;
69325;SDS011;56471;53.508;49.252;2023-04-24T05:44:07;4.20;;;2.67;;
69325;SDS011;56471;53.508;49.252;2023-04-24T05:46:32;6.90;;;2.97;;
69325;SDS011;56471;53.508;49.252;2023-04-24T05:48:58;4.90;;;2.67;;
69325;SDS011;56471;53.508;49.252;2023-04-24T05:51:24;5.40;;;2.80;;
69325;SDS011;56471;53.508;49.252;2023-04-24T05:53:50;4.50;;;2.75;;
69325;SDS011;56471;53.508;49.252;2023-04-24T05:56:16;4.53;;;2.80;;
69325;SDS011;56471;53.508;49.252;2023-04-24T05:58:42;4.85;;;2.80;;
69325;SDS011;56471;53.508;49.252;2023-04-24T06:01:08;6.15;;;3.17;;
69325;SDS011;56471;53.508;49.252;2023-04-24T06:03:34;5.13;;;3.20;;
69325;SDS011;56471;53.508;49.252;2023-04-24T06:06:00;4.15;;;2.80;;
69325;SDS011;56471;53.508;49.252;2023-04-24T06:08:25;6.43;;;2.80;;
69325;SDS011;56471;53.508;49.252;2023-04-24T06:10:51;4.68;;;2.80;;
69325;SDS011;56471;53.508;49.252;2023-04-24T06:13:17;5.57;;;2.53;;
69325;SDS011;56471;53.508;49.252;2023-04-24T06:15:43;3.70;;;2.90;;
69325;SDS011;56471;53.508;49.252;2023-04-24T06:18:09;4.72;;;2.78;;
69325;SDS011;56471;53.508;49.252;2023-04-24T06:20:37;3.70;;;2.60;;
69325;SDS011;56471;53.508;49.252;2023-04-24T06:23:03;4.00;;;2.72;;
69325;SDS011;56471;53.508;49.252;2023-04-24T06:25:29;7.53;;;2.75;;
69325;SDS011;56471;53.508;49.252;2023-04-24T06:27:55;6.65;;;2.88;;
69325;SDS011;56471;53.508;49.252;2023-04-24T06:30:21;4.10;;;2.50;;
69325;SDS011;56471;53.508;49.252;2023-04-24T06:32:47;5.72;;;2.80;;
69325;SDS011;56471;53.508;49.252;2023-04-24T06:35:12;4.55;;;2.55;;
69325;SDS011;56471;53.508;49.252;2023-04-24T06:37:41;7.03;;;2.83;;
69325;SDS011;56471;53.508;49.252;2023-04-24T06:40:08;3.53;;;2.60;;
69325;SDS011;56471;53.508;49.252;2023-04-24T06:42:35;4.88;;;2.53;;
69325;SDS011;56471;53.508;49.252;2023-04-24T06:45:01;3.65;;;2.60;;
69325;SDS011;56471;53.508;49.252;2023-04-24T06:47:26;5.40;;;2.78;;
69325;SDS011;56471;53.508;49.252;2023-04-24T06:49:52;5.45;;;2.70;;
69325;SDS011;56471;53.508;49.252;2023-04-24T06:52:18;7.05;;;3.05;;
69325;SDS011;56471;53.508;49.252;2023-04-24T06:54:44;4.43;;;2.60;;
69325;SDS011;56471;53.508;49.252;2023-04-24T06:57:10;7.18;;;2.70;;
69325;SDS011;56471;53.508;49.252;2023-04-24T06:59:36;7.93;;;3.13;;
69325;SDS011;56471;53.508;49.252;2023-04-24T07:02:02;4.90;;;2.80;;
69325;SDS011;56471;53.508;49.252;2023-04-24T07:04:28;4.38;;;2.90;;
69325;SDS011;56471;53.508;49.252;2023-04-24T07:06:55;6.35;;;2.70;;
69325;SDS011;56471;53.508;49.252;2023-04-24T07:09:22;4.47;;;2.80;;
69325;SDS011;56471;53.508;49.252;2023-04-24T07:11:49;5.18;;;2.70;;
69325;SDS011;56471;53.508;49.252;2023-04-24T07:14:15;3.67;;;2.65;;
69325;SDS011;56471;53.508;49.252;2023-04-24T07:16:41;5.22;;;3.17;;
69325;SDS011;56471;53.508;49.252;2023-04-24T07:19:07;4.20;;;2.60;;
69325;SDS011;56471;53.508;49.252;2023-04-24T07:21:33;6.75;;;3.00;;
69325;SDS011;56471;53.508;49.252;2023-04-24T07:23:58;4.75;;;2.65;;
69325;SDS011;56471;53.508;49.252;2023-04-24T07:26:25;6.35;;;3.10;;
69325;SDS011;56471;53.508;49.252;2023-04-24T07:28:51;7.40;;;2.92;;
69325;SDS011;56471;53.508;49.252;2023-04-24T07:31:17;5.15;;;2.90;;
69325;SDS011;56471;53.508;49.252;2023-04-24T07:33:43;5.55;;;2.80;;
69325;SDS011;56471;53.508;49.252;2023-04-24T07:36:08;5.00;;;2.45;;
69325;SDS011;56471;53.508;49.252;2023-04-24T07:38:40;5.88;;;2.72;;
69325;SDS011;56471;53.508;49.252;2023-04-24T07:41:09;3.58;;;2.63;;
69325;SDS011;56471;53.508;49.252;2023-04-24T07:43:35;8.20;;;3.03;;
69325;SDS011;56471;53.508;49.252;2023-04-24T07:46:00;7.82;;;2.70;;
69325;SDS011;56471;53.508;49.252;2023-04-24T07:48:26;4.05;;;2.80;;
69325;SDS011;56471;53.508;49.252;2023-04-24T07:50:52;4.97;;;3.10;;
69325;SDS011;56471;53.508;49.252;2023-04-24T07:53:18;6.78;;;3.00;;
69325;SDS011;56471;53.508;49.252;2023-04-24T07:55:44;3.90;;;2.78;;
69325;SDS011;56471;53.508;49.252;2023-04-24T07:58:10;4.93;;;2.58;;
69325;SDS011;56471;53.508;49.252;2023-04-24T08:00:35;4.15;;;2.80;;
69325;SDS011;56471;53.508;49.252;2023-04-24T08:03:01;4.50;;;2.85;;
69325;SDS011;56471;53.508;49.252;2023-04-24T08:05:27;6.57;;;2.60;;
69325;SDS011;56471;53.508;49.252;2023-04-24T08:07:54;8.85;;;2.90;;
69325;SDS011;56471;53.508;49.252;2023-04-24T08:10:20;5.65;;;2.78;;
69325;SDS011;56471;53.508;49.252;2023-04-24T08:12:47;5.97;;;2.63;;
69325;SDS011;56471;53.508;49.252;2023-04-24T08:15:13;2.75;;;2.50;;
69325;SDS011;56471;53.508;49.252;2023-04-24T08:17:38;6.80;;;2.67;;
69325;SDS011;56471;53.508;49.252;2023-04-24T08:20:04;4.45;;;2.67;;
69325;SDS011;56471;53.508;49.252;2023-04-24T08:22:35;5.50;;;2.70;;
69325;SDS011;56471;53.508;49.252;2023-04-24T08:25:01;4.72;;;2.70;;
69325;SDS011;56471;53.508;49.252;2023-04-24T08:27:27;5.40;;;2.40;;
69325;SDS011;56471;53.508;49.252;2023-04-24T08:29:53;5.18;;;2.50;;
69325;SDS011;56471;53.508;49.252;2023-04-24T08:32:19;7.03;;;2.28;;
69325;SDS011;56471;53.508;49.252;2023-04-24T08:34:45;3.03;;;2.50;;
69325;SDS011;56471;53.508;49.252;2023-04-24T08:37:11;6.28;;;2.40;;
69325;SDS011;56471;53.508;49.252;2023-04-24T08:39:37;4.57;;;2.60;;
69325;SDS011;56471;53.508;49.252;2023-04-24T08:42:02;4.10;;;2.38;;
69325;SDS011;56471;53.508;49.252;2023-04-24T08:44:33;6.13;;;2.70;;
69325;SDS011;56471;53.508;49.252;2023-04-24T08:47:00;4.13;;;2.50;;
69325;SDS011;56471;53.508;49.252;2023-04-24T08:49:27;4.18;;;2.53;;
69325;SDS011;56471;53.508;49.252;2023-04-24T08:51:53;4.63;;;2.60;;
69325;SDS011;56471;53.508;49.252;2023-04-24T08:54:19;3.50;;;2.58;;
69325;SDS011;56471;53.508;49.252;2023-04-24T08:56:46;5.15;;;2.63;;
69325;SDS011;56471;53.508;49.252;2023-04-24T08:59:16;6.90;;;2.70;;
69325;SDS011;56471;53.508;49.252;2023-04-24T09:01:42;2.80;;;2.50;;
69325;SDS011;56471;53.508;49.252;2023-04-24T09:04:11;3.05;;;2.60;;
69325;SDS011;56471;53.508;49.252;2023-04-24T09:06:40;3.90;;;2.60;;
69325;SDS011;56471;53.508;49.252;2023-04-24T09:09:05;4.10;;;2.40;;
69325;SDS011;56471;53.508;49.252;2023-04-24T09:11:33;3.08;;;2.28;;
69325;SDS011;56471;53.508;49.252;2023-04-24T09:13:59;4.30;;;2.60;;
69325;SDS011;56471;53.508;49.252;2023-04-24T09:16:26;4.68;;;2.40;;
69325;SDS011;56471;53.508;49.252;2023-04-24T09:18:52;3.33;;;2.47;;
69325;SDS011;56471;53.508;49.252;2023-04-24T09:21:20;3.00;;;2.30;;
69325;SDS011;56471;53.508;49.252;2023-04-24T09:23:47;3.25;;;2.40;;
69325;SDS011;56471;53.508;49.252;2023-04-24T09:26:24;3.92;;;2.40;;
69325;SDS011;56471;53.508;49.252;2023-04-24T09:28:50;2.50;;;2.30;;
69325;SDS011;56471;53.508;49.252;2023-04-24T09:31:17;3.90;;;2.40;;
69325;SDS011;56471;53.508;49.252;2023-04-24T09:33:56;3.95;;;2.60;;
69325;SDS011;56471;53.508;49.252;2023-04-24T09:36:36;3.33;;;2.60;;
69325;SDS011;56471;53.508;49.252;2023-04-24T09:39:07;3.72;;;2.42;;
69325;SDS011;56471;53.508;49.252;2023-04-24T09:41:44;3.63;;;2.63;;
69325;SDS011;56471;53.508;49.252;2023-04-24T09:44:15;3.15;;;2.50;;
69325;SDS011;56471;53.508;49.252;2023-04-24T09:46:42;3.65;;;2.50;;
69325;SDS011;56471;53.508;49.252;2023-04-24T09:49:15;4.20;;;2.60;;
69325;SDS011;56471;53.508;49.252;2023-04-24T09:51:41;4.72;;;2.58;;
69325;SDS011;56471;53.508;49.252;2023-04-24T09:54:15;4.63;;;2.67;;
69325;SDS011;56471;53.508;49.252;2023-04-24T09:56:42;4.47;;;2.40;;
69325;SDS011;56471;53.508;49.252;2023-04-24T09:59:10;5.10;;;2.70;;
69325;SDS011;56471;53.508;49.252;2023-04-24T10:01:36;2.95;;;2.40;;
69325;SDS011;56471;53.508;49.252;2023-04-24T10:04:03;3.42;;;2.85;;
69325;SDS011;56471;53.508;49.252;2023-04-24T10:06:35;4.30;;;2.45;;
69325;SDS011;56471;53.508;49.252;2023-04-24T10:09:01;10.15;;;3.13;;
69325;SDS011;56471;53.508;49.252;2023-04-24T10:11:28;2.90;;;2.47;;
69325;SDS011;56471;53.508;49.252;2023-04-24T10:13:55;3.10;;;2.40;;
69325;SDS011;56471;53.508;49.252;2023-04-24T10:16:22;3.10;;;2.40;;
69325;SDS011;56471;53.508;49.252;2023-04-24T10:18:48;7.70;;;2.78;;
69325;SDS011;56471;53.508;49.252;2023-04-24T10:21:15;3.45;;;2.33;;
69325;SDS011;56471;53.508;49.252;2023-04-24T10:23:43;4.78;;;2.60;;
69325;SDS011;56471;53.508;49.252;2023-04-24T10:26:10;3.42;;;2.60;;
69325;SDS011;56471;53.508;49.252;2023-04-24T10:28:42;4.93;;;2.80;;
69325;SDS011;56471;53.508;49.252;2023-04-24T10:31:10;4.18;;;2.72;;
69325;SDS011;56471;53.508;49.252;2023-04-24T10:33:38;4.78;;;2.50;;
69325;SDS011;56471;53.508;49.252;2023-04-24T10:36:06;6.43;;;2.97;;
69325;SDS011;56471;53.508;49.252;2023-04-24T10:38:34;3.50;;;2.40;;
69325;SDS011;56471;53.508;49.252;2023-04-24T10:41:08;4.57;;;3.00;;
69325;SDS011;56471;53.508;49.252;2023-04-24T10:43:39;4.50;;;2.70;;
69325;SDS011;56471;53.508;49.252;2023-04-24T10:46:05;7.57;;;2.83;;
69325;SDS011;56471;53.508;49.252;2023-04-24T10:48:32;4.15;;;2.80;;
69325;SDS011;56471;53.508;49.252;2023-04-24T10:50:58;3.60;;;2.50;;
69325;SDS011;56471;53.508;49.252;2023-04-24T10:53:24;3.05;;;2.50;;
69325;SDS011;56471;53.508;49.252;2023-04-24T10:56:02;7.25;;;3.00;;
69325;SDS011;56471;53.508;49.252;2023-04-24T10:58:40;3.13;;;2.55;;
69325;SDS011;56471;53.508;49.252;2023-04-24T11:01:27;3.30;;;2.50;;
69325;SDS011;56471;53.508;49.252;2023-04-24T11:06:28;3.75;;;2.63;;
69325;SDS011;56471;53.508;49.252;2023-04-24T11:09:01;2.90;;;2.30;;
69325;SDS011;56471;53.508;49.252;2023-04-24T11:11:36;5.88;;;2.50;;
69325;SDS011;56471;53.508;49.252;2023-04-24T11:14:05;4.55;;;2.30;;
69325;SDS011;56471;53.508;49.252;2023-04-24T11:16:39;4.85;;;2.42;;
69325;SDS011;56471;53.508;49.252;2023-04-24T11:21:43;3.38;;;2.40;;
69325;SDS011;56471;53.508;49.252;2023-04-24T11:29:39;3.47;;;2.60;;
69325;SDS011;56471;53.508;49.252;2023-04-24T11:32:24;3.80;;;2.67;;
69325;SDS011;56471;53.508;49.252;2023-04-24T11:35:00;5.75;;;2.65;;
69325;SDS011;56471;53.508;49.252;2023-04-24T11:37:28;2.80;;;2.50;;
69325;SDS011;56471;53.508;49.252;2023-04-24T11:39:58;4.03;;;2.50;;
69325;SDS011;56471;53.508;49.252;2023-04-24T11:42:24;3.58;;;2.45;;
69325;SDS011;56471;53.508;49.252;2023-04-24T11:44:53;4.45;;;2.60;;
69325;SDS011;56471;53.508;49.252;2023-04-24T11:47:29;2.97;;;2.40;;
69325;SDS011;56471;53.508;49.252;2023-04-24T11:49:55;4.78;;;2.70;;
69325;SDS011;56471;53.508;49.252;2023-04-24T11:52:21;4.53;;;2.47;;
69325;SDS011;56471;53.508;49.252;2023-04-24T11:54:49;1347.07;;;861.45;;
69325;SDS011;56471;53.508;49.252;2023-04-24T11:57:16;1112.85;;;790.75;;
69325;SDS011;56471;53.508;49.252;2023-04-24T11:59:44;1072.85;;;780.35;;
69325;SDS011;56471;53.508;49.252;2023-04-24T12:02:19;956.70;;;728.40;;
69325;SDS011;56471;53.508;49.252;2023-04-24T12:04:45;920.95;;;715.85;;
69325;SDS011;56471;53.508;49.252;2023-04-24T12:07:11;858.85;;;677.90;;
69325;SDS011;56471;53.508;49.252;2023-04-24T12:09:56;790.17;;;646.88;;
69325;SDS011;56471;53.508;49.252;2023-04-24T12:12:24;716.53;;;596.10;;
69325;SDS011;56471;53.508;49.252;2023-04-24T12:14:56;663.47;;;552.83;;
69325;SDS011;56471;53.508;49.252;2023-04-24T12:17:27;628.03;;;518.90;;
69325;SDS011;56471;53.508;49.252;2023-04-24T12:19:57;595.42;;;494.95;;
69325;SDS011;56471;53.508;49.252;2023-04-24T12:22:28;540.10;;;433.73;;
69325;SDS011;56471;53.508;49.252;2023-04-24T12:25:09;499.75;;;392.73;;
69325;SDS011;56471;53.508;49.252;2023-04-24T12:27:36;467.88;;;363.75;;
69325;SDS011;56471;53.508;49.252;2023-04-24T12:30:03;453.65;;;352.55;;
69325;SDS011;56471;53.508;49.252;2023-04-24T12:32:30;424.58;;;325.92;;
69325;SDS011;56471;53.508;49.252;2023-04-24T12:34:56;378.02;;;284.95;;
69325;SDS011;56471;53.508;49.252;2023-04-24T12:37:23;343.77;;;256.45;;
69325;SDS011;56471;53.508;49.252;2023-04-24T12:40:07;322.05;;;237.50;;
69325;SDS011;56471;53.508;49.252;2023-04-24T12:42:35;269.35;;;188.50;;
69325;SDS011;56471;53.508;49.252;2023-04-24T12:45:06;240.75;;;163.57;;
69325;SDS011;56471;53.508;49.252;2023-04-24T12:47:33;220.00;;;146.23;;
69325;SDS011;56471;53.508;49.252;2023-04-24T12:50:00;188.82;;;127.35;;
69325;SDS011;56471;53.508;49.252;2023-04-24T12:52:27;185.05;;;123.63;;
69325;SDS011;56471;53.508;49.252;2023-04-24T12:54:57;154.15;;;104.78;;
69325;SDS011;56471;53.508;49.252;2023-04-24T12:57:25;145.27;;;94.13;;
69325;SDS011;56471;53.508;49.252;2023-04-24T12:59:54;865.20;;;574.00;;
69325;SDS011;56471;53.508;49.252;2023-04-24T13:02:21;753.47;;;571.25;;
69325;SDS011;56471;53.508;49.252;2023-04-24T13:04:47;585.85;;;429.92;;
69325;SDS011;56471;53.508;49.252;2023-04-24T13:07:13;423.23;;;294.65;;
69325;SDS011;56471;53.508;49.252;2023-04-24T13:09:40;332.80;;;213.90;;
69325;SDS011;56471;53.508;49.252;2023-04-24T13:12:06;233.95;;;138.23;;
69325;SDS011;56471;53.508;49.252;2023-04-24T13:14:33;175.45;;;104.45;;
69325;SDS011;56471;53.508;49.252;2023-04-24T13:16:59;116.15;;;65.78;;
69325;SDS011;56471;53.508;49.252;2023-04-24T13:19:26;81.55;;;42.72;;
69325;SDS011;56471;53.508;49.252;2023-04-24T13:21:52;50.47;;;26.50;;
69325;SDS011;56471;53.508;49.252;2023-04-24T13:24:20;36.42;;;19.80;;
69325;SDS011;56471;53.508;49.252;2023-04-24T13:26:46;24.80;;;13.85;;
69325;SDS011;56471;53.508;49.252;2023-04-24T13:29:11;15.93;;;8.85;;
69325;SDS011;56471;53.508;49.252;2023-04-24T13:31:37;14.55;;;7.70;;
69325;SDS011;56471;53.508;49.252;2023-04-24T13:34:03;8.57;;;5.28;;
69325;SDS011;56471;53.508;49.252;2023-04-24T13:36:28;7.50;;;4.20;;
69325;SDS011;56471;53.508;49.252;2023-04-24T13:38:55;6.63;;;3.10;;
69325;SDS011;56471;53.508;49.252;2023-04-24T13:41:21;4.43;;;2.70;;
69325;SDS011;56471;53.508;49.252;2023-04-24T13:43:47;4.03;;;2.63;;
69325;SDS011;56471;53.508;49.252;2023-04-24T13:46:12;4.72;;;2.10;;
69325;SDS011;56471;53.508;49.252;2023-04-24T13:48:38;3.42;;;2.30;;
69325;SDS011;56471;53.508;49.252;2023-04-24T13:51:03;3.08;;;2.13;;
69325;SDS011;56471;53.508;49.252;2023-04-24T13:53:29;2.40;;;2.10;;
69325;SDS011;56471;53.508;49.252;2023-04-24T13:55:55;2.97;;;2.00;;
69325;SDS011;56471;53.508;49.252;2023-04-24T13:58:21;5.25;;;2.10;;
69325;SDS011;56471;53.508;49.252;2023-04-24T14:00:46;2.97;;;2.15;;
69325;SDS011;56471;53.508;49.252;2023-04-24T14:03:12;4.70;;;1.98;;
69325;SDS011;56471;53.508;49.252;2023-04-24T14:05:38;3.60;;;2.10;;
69325;SDS011;56471;53.508;49.252;2023-04-24T14:08:03;3.58;;;2.10;;
69325;SDS011;56471;53.508;49.252;2023-04-24T14:10:29;5.45;;;2.13;;
69325;SDS011;56471;53.508;49.252;2023-04-24T14:12:55;3.42;;;1.90;;
69325;SDS011;56471;53.508;49.252;2023-04-24T14:15:21;2.42;;;1.73;;
69325;SDS011;56471;53.508;49.252;2023-04-24T14:17:47;3.90;;;2.00;;
69325;SDS011;56471;53.508;49.252;2023-04-24T14:20:13;4.68;;;1.90;;
69325;SDS011;56471;53.508;49.252;2023-04-24T14:22:39;3.03;;;1.85;;
69325;SDS011;56471;53.508;49.252;2023-04-24T14:25:05;3.17;;;1.83;;
69325;SDS011;56471;53.508;49.252;2023-04-24T14:27:32;3.92;;;1.80;;
69325;SDS011;56471;53.508;49.252;2023-04-24T14:30:00;7.25;;;1.80;;
69325;SDS011;56471;53.508;49.252;2023-04-24T14:32:26;2.35;;;1.80;;
69325;SDS011;56471;53.508;49.252;2023-04-24T14:34:51;5.28;;;1.95;;
69325;SDS011;56471;53.508;49.252;2023-04-24T14:37:17;2.50;;;1.88;;